Time;durP1;ratioP1;P1;durP2;ratioP2;P2;SDS_P1;SDS_P2;PMS_P1;PMS_P2;Temp;Humidity;BMP_temperature;BMP_pressure;BME280_temperature;BME280_humidity;BME280_pressure;Samples;Min_cycle;Max_cycle;Signal;HPM_P1;HPM_P2
2022/10/17 00:00:23;;;;;;;66.80;36.20;;;11.40;99.90;;;;;;10408480;28;20585;-76
2022/10/17 00:05:24;;;;;;;67.32;37.70;;;11.40;99.90;;;;;;10406400;28;20132;-77
2022/10/17 00:10:25;;;;;;;62.58;33.58;;;11.30;99.90;;;;;;10401195;28;20045;-75
2022/10/17 00:15:25;;;;;;;59.22;32.72;;;11.40;99.90;;;;;;10408414;28;20025;-76
2022/10/17 00:20:26;;;;;;;62.58;33.70;;;11.40;99.90;;;;;;10401214;28;20489;-78
2022/10/17 00:25:27;;;;;;;72.15;39.92;;;11.30;99.90;;;;;;10409977;28;20031;-76
2022/10/17 00:30:27;;;;;;;72.13;38.25;;;11.20;99.90;;;;;;10407351;28;20042;-79
2022/10/17 00:35:28;;;;;;;57.83;32.63;;;11.20;99.90;;;;;;10407571;28;20040;-76
2022/10/17 00:40:28;;;;;;;74.35;39.00;;;11.20;99.90;;;;;;10408871;28;20493;-75
2022/10/17 00:45:30;;;;;;;72.68;41.00;;;11.10;99.90;;;;;;10407163;28;20037;-76
2022/10/17 00:50:31;;;;;;;70.68;37.90;;;11.10;99.90;;;;;;10407324;28;20045;-78
2022/10/17 00:55:43;;;;;;;60.10;35.25;;;11.20;99.90;;;;;;10408544;28;20064;-78
2022/10/17 01:00:46;;;;;;;60.08;34.00;;;11.10;99.90;;;;;;10406841;28;20416;-76
2022/10/17 01:05:46;;;;;;;72.85;38.80;;;11.10;99.90;;;;;;10404913;28;20046;-77
2022/10/17 01:10:58;;;;;;;77.10;41.25;;;11.00;99.90;;;;;;10400314;28;20041;-78
2022/10/17 01:16:10;;;;;;;61.28;35.45;;;11.00;99.90;;;;;;10396808;28;20068;-76
2022/10/17 01:21:38;;;;;;;78.15;40.67;;;10.90;99.90;;;;;;10406385;28;20106;-77
2022/10/17 01:27:07;;;;;;;73.25;39.83;;;10.90;99.90;;;;;;10394395;28;20103;-78
2022/10/17 01:32:36;;;;;;;89.57;43.55;;;10.80;99.90;;;;;;10401893;28;20193;-75
2022/10/17 01:37:52;;;;;;;81.72;43.72;;;10.80;99.90;;;;;;10403376;28;20112;-78
2022/10/17 01:43:02;;;;;;;79.55;43.20;;;10.80;99.90;;;;;;10405571;28;20056;-77
2022/10/17 01:48:08;;;;;;;65.68;36.38;;;10.70;99.90;;;;;;10405570;28;20033;-75
2022/10/17 01:53:35;;;;;;;80.70;40.97;;;10.70;99.90;;;;;;10398504;28;20496;-76
2022/10/17 01:58:38;;;;;;;;;;;10.60;99.90;;;;;;10405022;28;20025;-77
2022/10/17 02:03:41;;;;;;;90.80;44.05;;;10.60;99.90;;;;;;10404948;28;19999;-76
2022/10/17 02:08:48;;;;;;;77.77;40.07;;;10.50;99.90;;;;;;10403887;28;20413;-77
2022/10/17 02:13:54;;;;;;;62.58;35.03;;;10.60;99.90;;;;;;10395337;28;20041;-76
2022/10/17 02:19:16;;;;;;;73.00;37.85;;;10.60;99.90;;;;;;10391231;28;20437;-78
2022/10/17 02:24:29;;;;;;;76.50;41.33;;;10.60;99.90;;;;;;10389172;28;20061;-75
2022/10/17 02:29:35;;;;;;;74.07;40.40;;;10.50;99.90;;;;;;10403168;28;20425;-77
2022/10/17 02:34:45;;;;;;;83.85;42.10;;;10.50;99.90;;;;;;10396271;28;20041;-76
2022/10/17 02:39:46;;;;;;;85.07;43.65;;;10.40;99.90;;;;;;10404135;28;20030;-76
2022/10/17 02:44:47;;;;;;;72.50;36.97;;;10.40;99.90;;;;;;10397404;28;20087;-76
2022/10/17 02:49:54;;;;;;;62.70;36.38;;;10.40;99.90;;;;;;10398279;28;20133;-77
2022/10/17 02:55:05;;;;;;;59.60;33.38;;;10.40;99.90;;;;;;10398746;28;20032;-77
2022/10/17 03:00:09;;;;;;;77.43;38.72;;;10.40;99.90;;;;;;10387117;28;20022;-77
2022/10/17 03:05:13;;;;;;;60.90;33.20;;;10.30;99.90;;;;;;10391057;28;20440;-76
2022/10/17 03:10:14;;;;;;;84.05;38.47;;;10.20;99.90;;;;;;10399540;28;20048;-77
2022/10/17 03:15:14;;;;;;;95.80;40.03;;;10.10;99.90;;;;;;10410901;28;20052;-77
2022/10/17 03:20:15;;;;;;;86.53;39.58;;;10.00;99.90;;;;;;10406040;28;20033;-78
2022/10/17 03:25:15;;;;;;;86.43;43.20;;;10.00;99.90;;;;;;10411476;28;20029;-78
2022/10/17 03:30:16;;;;;;;91.73;40.70;;;9.90;99.90;;;;;;10410483;28;20124;-76
2022/10/17 03:35:17;;;;;;;94.73;44.10;;;9.90;99.90;;;;;;10411735;28;20645;-78
2022/10/17 03:40:17;;;;;;;78.15;41.92;;;9.90;99.90;;;;;;10404623;28;20033;-78
2022/10/17 03:45:18;;;;;;;99.23;47.20;;;9.90;99.90;;;;;;10410699;28;20112;-80
2022/10/17 03:50:18;;;;;;;77.07;40.13;;;9.90;99.90;;;;;;10396228;28;20033;-77
2022/10/17 03:55:19;;;;;;;82.38;43.10;;;9.90;99.90;;;;;;10401455;28;20033;-78
2022/10/17 04:00:19;;;;;;;83.87;42.30;;;9.90;99.90;;;;;;10402908;28;20505;-77
2022/10/17 04:05:20;;;;;;;76.47;39.37;;;10.00;99.90;;;;;;10406205;28;20160;-78
2022/10/17 04:10:20;;;;;;;90.67;44.10;;;10.00;99.90;;;;;;10393348;28;20038;-77
2022/10/17 04:15:21;;;;;;;78.50;42.28;;;10.00;99.90;;;;;;10393720;28;20041;-80
2022/10/17 04:20:26;;;;;;;69.33;38.30;;;10.10;99.90;;;;;;10408239;28;20032;-77
2022/10/17 04:25:26;;;;;;;71.75;40.05;;;10.10;99.90;;;;;;10409292;28;20493;-77
2022/10/17 04:30:27;;;;;;;68.77;37.83;;;10.00;99.90;;;;;;10409037;28;20137;-77
2022/10/17 04:35:28;;;;;;;75.10;39.95;;;10.00;99.90;;;;;;10409122;28;20056;-77
2022/10/17 04:40:28;;;;;;;83.40;41.23;;;10.00;99.90;;;;;;10409674;28;20025;-77
2022/10/17 04:45:29;;;;;;;65.00;37.10;;;9.90;99.90;;;;;;10409041;28;20033;-78
2022/10/17 04:50:29;;;;;;;95.43;39.97;;;9.90;99.90;;;;;;10408807;28;20047;-77
2022/10/17 04:55:30;;;;;;;98.77;47.20;;;9.80;99.90;;;;;;10408602;28;20039;-77
2022/10/17 05:00:30;;;;;;;109.00;47.17;;;9.60;99.90;;;;;;10408593;28;20452;-77
2022/10/17 05:05:31;;;;;;;83.93;42.07;;;9.60;99.90;;;;;;10408596;28;20053;-77
2022/10/17 05:10:36;;;;;;;120.90;51.23;;;9.50;99.90;;;;;;10407890;28;20069;-77
2022/10/17 05:15:37;;;;;;;100.33;47.60;;;9.50;99.90;;;;;;10408738;28;20119;-77
2022/10/17 05:20:38;;;;;;;103.13;48.30;;;9.60;99.90;;;;;;10407596;28;20047;-76
2022/10/17 05:25:38;;;;;;;63.53;36.70;;;9.60;99.90;;;;;;10407485;28;20484;-76
2022/10/17 05:30:39;;;;;;;92.93;45.40;;;9.70;99.90;;;;;;10407375;28;20051;-77
2022/10/17 05:35:39;;;;;;;99.07;48.20;;;9.80;99.90;;;;;;10406550;28;20029;-79
2022/10/17 05:40:40;;;;;;;72.47;38.78;;;9.80;99.90;;;;;;10406729;28;20559;-76
2022/10/17 05:45:41;;;;;;;75.57;42.65;;;9.80;99.90;;;;;;10406411;28;20041;-77
2022/10/17 05:50:41;;;;;;;86.15;46.28;;;10.00;99.90;;;;;;10406870;28;20083;-77
2022/10/17 05:55:42;;;;;;;78.70;41.30;;;10.00;99.90;;;;;;10407246;28;20048;-77
2022/10/17 06:00:42;;;;;;;80.32;43.42;;;10.10;99.90;;;;;;10406233;28;20041;-77
2022/10/17 06:05:43;;;;;;;61.75;35.80;;;10.10;99.90;;;;;;10406267;28;20107;-77
2022/10/17 06:10:46;;;;;;;79.20;43.22;;;10.20;99.90;;;;;;10406049;28;20041;-78
2022/10/17 06:15:47;;;;;;;68.72;40.78;;;10.30;99.90;;;;;;10406174;28;20052;-77
2022/10/17 06:20:48;;;;;;;60.92;35.08;;;10.40;99.90;;;;;;10405315;28;20041;-77
2022/10/17 06:25:48;;;;;;;70.60;39.42;;;10.50;99.90;;;;;;10405809;28;20029;-76
2022/10/17 06:30:49;;;;;;;71.10;40.53;;;10.70;99.90;;;;;;10405488;28;20044;-77
2022/10/17 06:35:53;;;;;;;64.15;37.92;;;10.80;99.90;;;;;;10405335;28;20043;-76
2022/10/17 06:40:56;;;;;;;67.57;40.15;;;10.90;99.90;;;;;;10405047;28;20036;-77
2022/10/17 06:45:57;;;;;;;66.22;39.55;;;11.10;99.90;;;;;;10413252;28;20033;-76
2022/10/17 06:51:01;;;;;;;64.72;37.72;;;11.20;99.90;;;;;;10418252;28;20044;-79
2022/10/17 06:56:03;;;;;;;60.38;35.70;;;11.30;99.90;;;;;;10418278;28;20159;-77
2022/10/17 07:01:10;;;;;;;71.97;42.08;;;11.60;99.90;;;;;;10418520;28;20499;-79
2022/10/17 07:06:10;;;;;;;59.92;37.33;;;11.70;99.90;;;;;;10418231;28;20083;-77
2022/10/17 07:11:14;;;;;;;56.58;33.40;;;11.90;99.90;;;;;;10417793;28;20036;-80
2022/10/17 07:16:15;;;;;;;56.83;35.72;;;12.10;99.90;;;;;;10417924;28;20063;-77
2022/10/17 07:21:16;;;;;;;53.08;33.15;;;12.30;99.90;;;;;;10418123;28;20460;-77
2022/10/17 07:26:18;;;;;;;52.45;32.42;;;12.60;99.90;;;;;;10418170;28;20080;-80
2022/10/17 07:31:21;;;;;;;49.22;30.25;;;12.80;99.90;;;;;;10417509;28;20072;-80
2022/10/17 07:36:21;;;;;;;49.95;28.55;;;13.10;99.90;;;;;;10417828;28;20477;-78
2022/10/17 07:41:22;;;;;;;48.10;29.48;;;13.40;99.90;;;;;;10417401;28;20080;-77
2022/10/17 07:46:22;;;;;;;50.10;29.95;;;13.80;99.90;;;;;;10417258;28;20063;-77
2022/10/17 07:51:23;;;;;;;38.40;25.90;;;14.20;99.90;;;;;;10417594;28;20033;-77
2022/10/17 07:56:24;;;;;;;41.78;26.42;;;14.50;99.90;;;;;;10413835;28;20025;-77
2022/10/17 08:01:25;;;;;;;38.05;24.15;;;14.80;99.90;;;;;;10410442;28;20158;-78
2022/10/17 08:06:25;;;;;;;37.00;23.13;;;15.20;99.90;;;;;;10410558;28;20088;-77
2022/10/17 08:11:26;;;;;;;31.48;20.08;;;15.60;99.90;;;;;;10408931;28;20080;-77
2022/10/17 08:16:27;;;;;;;27.35;18.63;;;15.90;99.90;;;;;;10410768;28;20051;-77
2022/10/17 08:21:27;;;;;;;32.42;18.52;;;16.30;99.90;;;;;;10409761;28;20147;-77
2022/10/17 08:26:28;;;;;;;31.13;17.73;;;16.50;99.90;;;;;;10410300;28;20033;-77
2022/10/17 08:31:28;;;;;;;26.25;16.98;;;16.80;99.90;;;;;;10409796;28;20051;-77
2022/10/17 08:36:29;;;;;;;21.70;14.60;;;17.10;99.90;;;;;;10409050;28;20067;-78
2022/10/17 08:41:51;;;;;;;24.17;14.90;;;17.30;99.90;;;;;;10409248;28;20480;-77
2022/10/17 08:46:57;;;;;;;19.98;13.07;;;17.60;99.90;;;;;;10401791;28;20033;-77
2022/10/17 08:52:05;;;;;;;22.15;14.98;;;17.70;99.90;;;;;;10408654;28;20033;-80
2022/10/17 08:57:14;;;;;;;27.05;14.27;;;17.90;99.90;;;;;;10408280;28;20025;-76
2022/10/17 09:02:30;;;;;;;20.17;12.95;;;18.20;99.90;;;;;;10382883;28;20359;-77
2022/10/17 09:07:46;;;;;;;19.58;12.40;;;18.40;99.90;;;;;;10407612;28;20131;-77
2022/10/17 09:13:07;;;;;;;22.00;13.05;;;18.50;99.90;;;;;;10407941;28;20042;-78
2022/10/17 09:18:32;;;;;;;20.00;12.85;;;18.60;99.90;;;;;;10408481;28;20164;-78
2022/10/17 09:23:44;;;;;;;19.30;11.33;;;18.90;99.90;;;;;;10407771;28;20029;-77
2022/10/17 09:28:52;;;;;;;15.95;10.30;;;19.10;99.90;;;;;;10407026;28;20087;-77
2022/10/17 09:33:55;;;;;;;17.02;10.75;;;19.40;99.90;;;;;;10407073;28;20056;-79
2022/10/17 09:39:00;;;;;;;15.82;10.27;;;19.60;99.90;;;;;;10406522;28;20030;-77
2022/10/17 09:44:21;;;;;;;20.77;10.40;;;19.70;99.90;;;;;;10407063;28;20112;-78
2022/10/17 09:49:33;;;;;;;13.15;8.98;;;19.90;98.60;;;;;;10396151;28;20057;-77
2022/10/17 09:54:50;;;;;;;14.73;9.15;;;20.10;98.20;;;;;;10390115;28;20596;-81
2022/10/17 09:59:59;;;;;;;16.20;10.02;;;20.20;96.00;;;;;;10406368;28;20033;-77
2022/10/17 10:05:04;;;;;;;16.60;8.88;;;20.40;96.10;;;;;;10405729;28;20766;-77
2022/10/17 10:10:22;;;;;;;14.43;9.00;;;20.60;94.70;;;;;;10405974;28;20041;-78
2022/10/17 10:15:39;;;;;;;12.57;7.82;;;20.70;92.60;;;;;;10406126;28;20040;-79
2022/10/17 10:20:45;;;;;;;16.48;8.63;;;20.90;92.10;;;;;;10404614;28;20047;-78
2022/10/17 10:26:02;;;;;;;14.45;8.00;;;20.90;91.10;;;;;;10405634;28;20080;-77
2022/10/17 10:31:07;;;;;;;12.95;8.90;;;21.00;90.10;;;;;;10405617;28;20246;-77
2022/10/17 10:36:09;;;;;;;13.60;8.53;;;21.00;88.30;;;;;;10405920;28;20382;-80
2022/10/17 10:41:10;;;;;;;14.15;9.40;;;21.10;87.00;;;;;;10403302;28;20191;-77
2022/10/17 10:46:20;;;;;;;17.52;9.38;;;21.20;85.90;;;;;;10404708;28;20045;-76
2022/10/17 10:51:30;;;;;;;13.55;8.23;;;21.30;87.00;;;;;;10404587;28;20038;-80
2022/10/17 10:56:42;;;;;;;14.43;8.57;;;21.40;87.10;;;;;;10404513;28;20478;-77
2022/10/17 11:01:57;;;;;;;13.02;7.90;;;21.60;86.90;;;;;;10405135;28;20021;-77
2022/10/17 11:07:19;;;;;;;11.07;8.15;;;21.70;86.30;;;;;;10404841;28;20072;-77
2022/10/17 11:12:48;;;;;;;15.13;8.20;;;21.80;86.00;;;;;;10404295;28;20870;-77
2022/10/17 11:18:01;;;;;;;25.08;8.95;;;22.00;86.00;;;;;;10403910;28;20042;-77
2022/10/17 11:23:46;;;;;;;11.65;8.65;;;22.10;85.00;;;;;;10404435;28;20021;-77
2022/10/17 11:28:47;;;;;;;13.02;8.98;;;22.30;84.70;;;;;;10398404;28;20048;-77
2022/10/17 11:34:10;;;;;;;14.38;7.78;;;22.30;83.10;;;;;;10409785;28;20041;-77
2022/10/17 11:39:17;;;;;;;11.30;8.10;;;22.30;82.70;;;;;;10411613;28;20068;-79
2022/10/17 11:44:20;;;;;;;12.55;7.95;;;22.30;83.20;;;;;;10411151;28;20021;-77
2022/10/17 11:49:27;;;;;;;12.43;8.23;;;22.40;82.20;;;;;;10399030;28;20029;-80
2022/10/17 11:54:36;;;;;;;13.98;7.72;;;22.50;82.30;;;;;;10411555;28;20116;-77
2022/10/17 12:00:06;;;;;;;11.82;7.93;;;22.50;82.40;;;;;;10410986;28;20026;-79
2022/10/17 12:05:30;;;;;;;16.38;7.38;;;22.70;81.70;;;;;;10410610;28;20083;-77
2022/10/17 12:10:58;;;;;;;13.65;7.60;;;22.70;81.30;;;;;;10411373;28;20124;-77
2022/10/17 12:16:17;;;;;;;14.45;7.20;;;22.80;81.60;;;;;;10406293;28;20088;-78
2022/10/17 12:21:17;;;;;;;11.90;7.68;;;22.90;81.20;;;;;;10409736;28;20147;-77
2022/10/17 12:26:28;;;;;;;10.95;7.15;;;22.90;79.20;;;;;;10410177;28;20071;-78
2022/10/17 12:31:29;;;;;;;10.73;6.93;;;23.00;79.20;;;;;;10409732;28;20048;-77
2022/10/17 12:36:29;;;;;;;13.40;6.72;;;23.00;78.60;;;;;;10409188;28;20041;-77
2022/10/17 12:41:39;;;;;;;11.23;6.88;;;23.10;77.80;;;;;;10396870;28;20030;-77
2022/10/17 12:46:43;;;;;;;11.15;6.93;;;23.10;78.30;;;;;;10382178;28;20080;-77
2022/10/17 12:52:22;;;;;;;10.27;6.57;;;23.10;78.10;;;;;;10402973;28;20124;-77
2022/10/17 12:57:39;;;;;;;15.50;7.10;;;23.20;79.10;;;;;;10408116;28;20034;-81
2022/10/17 13:02:40;;;;;;;10.00;7.20;;;23.30;78.40;;;;;;10402271;28;20026;-77
2022/10/17 13:07:43;;;;;;;13.23;6.70;;;23.10;76.80;;;;;;10406632;28;20115;-77
2022/10/17 13:12:43;;;;;;;10.50;6.55;;;23.20;78.20;;;;;;10396303;28;20040;-77
2022/10/17 13:17:44;;;;;;;8.95;6.05;;;23.30;78.60;;;;;;10403503;28;20037;-78
2022/10/17 13:22:45;;;;;;;11.82;6.70;;;23.20;77.00;;;;;;10394678;28;20393;-77
2022/10/17 13:27:47;;;;;;;11.38;6.57;;;23.20;78.50;;;;;;10407315;28;20042;-78
2022/10/17 13:32:48;;;;;;;11.95;6.75;;;23.10;76.60;;;;;;10407443;28;20076;-78
2022/10/17 13:37:50;;;;;;;9.98;6.75;;;23.00;76.30;;;;;;10406780;28;20112;-77
2022/10/17 13:42:52;;;;;;;13.20;6.93;;;22.90;77.20;;;;;;10406819;28;20363;-79
2022/10/17 13:47:53;;;;;;;9.90;6.38;;;22.80;76.40;;;;;;10406564;28;20033;-80
2022/10/17 13:53:07;;;;;;;12.70;7.40;;;22.80;78.10;;;;;;10405372;28;20120;-77
2022/10/17 13:58:14;;;;;;;9.95;7.28;;;22.80;78.30;;;;;;10406231;28;20124;-77
2022/10/17 14:03:15;;;;;;;8.25;6.40;;;22.80;78.20;;;;;;10405901;28;20028;-77
2022/10/17 14:08:15;;;;;;;17.42;6.75;;;22.70;78.20;;;;;;10405796;28;20052;-76
2022/10/17 14:13:22;;;;;;;12.02;7.25;;;22.70;78.70;;;;;;10405543;28;20661;-78
2022/10/17 14:18:27;;;;;;;12.80;7.70;;;22.60;79.50;;;;;;10405185;28;20029;-78
2022/10/17 14:23:40;;;;;;;20.15;7.45;;;22.50;80.20;;;;;;10405982;28;20030;-78
2022/10/17 14:28:42;;;;;;;11.77;6.90;;;22.30;80.30;;;;;;10405228;28;20035;-78
2022/10/17 14:33:48;;;;;;;11.27;6.45;;;22.20;80.30;;;;;;10405202;28;20067;-77
2022/10/17 14:38:52;;;;;;;12.98;6.18;;;22.00;80.60;;;;;;10405589;28;20033;-77
2022/10/17 14:43:58;;;;;;;8.85;5.65;;;21.90;79.90;;;;;;10404834;28;20060;-78
2022/10/17 14:49:12;;;;;;;8.38;5.78;;;21.70;80.00;;;;;;10401725;28;20033;-78
2022/10/17 14:54:22;;;;;;;8.15;5.35;;;21.60;80.30;;;;;;10404539;28;20033;-77
2022/10/17 14:59:24;;;;;;;9.05;5.75;;;21.40;80.50;;;;;;10404859;28;20029;-78
2022/10/17 15:04:31;;;;;;;9.38;6.13;;;21.30;80.00;;;;;;10404852;28;20056;-79
2022/10/17 15:09:31;;;;;;;10.30;5.80;;;21.00;80.70;;;;;;10412820;28;20037;-78
2022/10/17 15:14:32;;;;;;;10.70;5.50;;;20.90;80.70;;;;;;10409008;28;20369;-77
2022/10/17 15:19:32;;;;;;;8.75;5.30;;;20.70;80.80;;;;;;10406360;28;20128;-78
2022/10/17 15:24:33;;;;;;;12.82;5.85;;;20.50;81.40;;;;;;10398704;28;20029;-77
2022/10/17 15:29:34;;;;;;;10.90;5.78;;;20.30;82.20;;;;;;10412372;28;20033;-79
2022/10/17 15:34:34;;;;;;;12.07;9.98;;;20.10;82.70;;;;;;10405725;28;20525;-77
2022/10/17 15:39:35;;;;;;;9.95;7.32;;;20.00;83.90;;;;;;10404347;28;20034;-76
2022/10/17 15:44:36;;;;;;;10.52;7.30;;;19.70;84.40;;;;;;10394509;28;20041;-78
2022/10/17 15:49:36;;;;;;;26.10;22.92;;;19.40;85.30;;;;;;10405636;28;20049;-78
2022/10/17 15:54:37;;;;;;;18.77;15.70;;;19.20;86.50;;;;;;10410668;28;20034;-79
2022/10/17 15:59:37;;;;;;;20.75;18.20;;;18.80;87.60;;;;;;10405603;28;20756;-78
2022/10/17 16:04:38;;;;;;;18.20;12.35;;;18.50;88.90;;;;;;10400688;28;20099;-82
2022/10/17 16:09:39;;;;;;;17.23;11.73;;;18.00;90.40;;;;;;10401991;28;20037;-78
2022/10/17 16:14:39;;;;;;;25.55;18.50;;;17.50;91.60;;;;;;10402948;28;20041;-80
2022/10/17 16:19:41;;;;;;;44.13;33.35;;;17.20;93.20;;;;;;10400583;28;20068;-78
2022/10/17 16:24:41;;;;;;;27.92;16.55;;;16.80;95.30;;;;;;10395622;28;20026;-80
2022/10/17 16:29:42;;;;;;;26.65;15.45;;;16.60;96.70;;;;;;10406585;28;20087;-77
2022/10/17 16:34:43;;;;;;;26.58;19.70;;;16.50;98.30;;;;;;10404190;28;20436;-78
2022/10/17 16:39:47;;;;;;;23.70;18.38;;;16.40;99.90;;;;;;10398668;28;20066;-83
2022/10/17 16:44:49;;;;;;;26.83;18.90;;;16.30;99.90;;;;;;10400703;28;20029;-78
2022/10/17 16:49:50;;;;;;;29.08;18.08;;;16.30;99.90;;;;;;10398651;28;20064;-81
2022/10/17 16:54:50;;;;;;;26.77;17.48;;;16.20;99.90;;;;;;10400513;28;20559;-78
2022/10/17 16:59:51;;;;;;;22.25;13.15;;;16.10;99.90;;;;;;10401380;28;20043;-78
2022/10/17 17:04:52;;;;;;;28.17;14.98;;;15.90;99.90;;;;;;10391603;28;20074;-80
2022/10/17 17:09:54;;;;;;;32.17;16.38;;;15.90;99.90;;;;;;10385059;28;20041;-77
2022/10/17 17:14:55;;;;;;;25.58;14.15;;;16.00;99.90;;;;;;10397509;28;20066;-75
2022/10/17 17:19:55;;;;;;;25.08;14.07;;;16.00;99.90;;;;;;10394835;28;20120;-77
2022/10/17 17:24:56;;;;;;;23.48;12.10;;;16.00;99.90;;;;;;10405239;28;20393;-77
2022/10/17 17:29:56;;;;;;;23.17;12.85;;;15.80;99.90;;;;;;10402167;28;20132;-75
2022/10/17 17:34:57;;;;;;;19.90;11.27;;;15.90;99.90;;;;;;10390049;28;20501;-75
2022/10/17 17:39:58;;;;;;;21.30;13.05;;;16.00;99.90;;;;;;10390351;28;20044;-79
2022/10/17 17:44:58;;;;;;;24.95;12.63;;;15.90;99.90;;;;;;10377854;28;20108;-77
2022/10/17 17:49:59;;;;;;;21.98;12.98;;;15.60;99.90;;;;;;10385315;28;20033;-79
2022/10/17 17:55:00;;;;;;;17.73;11.40;;;15.40;99.90;;;;;;10384461;28;20042;-79
2022/10/17 18:00:00;;;;;;;20.42;11.80;;;15.20;99.90;;;;;;10399943;28;20097;-78
2022/10/17 18:05:01;;;;;;;18.73;11.25;;;15.10;99.90;;;;;;10393491;28;20057;-77
2022/10/17 18:10:02;;;;;;;23.08;12.43;;;15.00;99.90;;;;;;10403424;28;20029;-81
2022/10/17 18:15:04;;;;;;;42.75;26.63;;;14.80;99.90;;;;;;10405401;28;20036;-76
2022/10/17 18:20:06;;;;;;;91.25;50.22;;;14.70;99.90;;;;;;10399424;28;20043;-77
2022/10/17 18:25:07;;;;;;;83.25;50.45;;;14.60;99.90;;;;;;10403969;28;20029;-78
2022/10/17 18:30:08;;;;;;;68.88;42.08;;;14.50;99.90;;;;;;10404576;28;20416;-78
2022/10/17 18:35:09;;;;;;;53.90;31.02;;;14.40;99.90;;;;;;10402247;28;20030;-79
2022/10/17 18:40:10;;;;;;;48.63;26.40;;;14.30;99.90;;;;;;10395153;28;20544;-77
2022/10/17 18:45:10;;;;;;;45.58;24.92;;;14.20;99.90;;;;;;10397923;28;20079;-78
2022/10/17 18:50:12;;;;;;;44.60;23.17;;;14.20;99.90;;;;;;10399506;28;20033;-77
2022/10/17 18:55:14;;;;;;;42.78;22.85;;;14.20;99.90;;;;;;10400244;28;20116;-79
2022/10/17 19:00:16;;;;;;;34.97;19.17;;;14.10;99.90;;;;;;10383033;28;20030;-78
2022/10/17 19:05:17;;;;;;;34.50;17.75;;;14.10;99.90;;;;;;10402353;28;20562;-79
2022/10/17 19:10:18;;;;;;;29.35;16.85;;;14.00;99.90;;;;;;10390427;28;20187;-77
2022/10/17 19:15:18;;;;;;;34.40;17.27;;;14.00;99.90;;;;;;10403944;28;20035;-80
2022/10/17 19:20:19;;;;;;;27.10;16.65;;;13.90;99.90;;;;;;10404099;28;20025;-77
2022/10/17 19:25:19;;;;;;;32.55;19.45;;;13.80;99.90;;;;;;10400419;28;20025;-77
2022/10/17 19:30:20;;;;;;;34.88;19.42;;;13.80;99.90;;;;;;10396578;28;20043;-79
2022/10/17 19:35:21;;;;;;;34.15;19.30;;;13.70;99.90;;;;;;10393999;28;20041;-80
2022/10/17 19:40:21;;;;;;;28.63;17.80;;;13.60;99.90;;;;;;10402360;28;20465;-77
2022/10/17 19:45:22;;;;;;;34.47;18.42;;;13.60;99.90;;;;;;10402950;28;20036;-77
2022/10/17 19:50:22;;;;;;;36.90;19.25;;;13.70;99.90;;;;;;10398299;28;20030;-75
2022/10/17 19:55:23;;;;;;;31.75;18.50;;;13.70;99.90;;;;;;10402859;28;20041;-80
2022/10/17 20:00:24;;;;;;;35.80;19.10;;;13.60;99.90;;;;;;10397226;28;20041;-79
2022/10/17 20:05:24;;;;;;;31.08;16.85;;;13.50;99.90;;;;;;10410355;28;20058;-78
2022/10/17 20:10:25;;;;;;;31.23;15.90;;;13.50;99.90;;;;;;10409533;28;20544;-77
2022/10/17 20:15:25;;;;;;;25.35;14.35;;;13.50;99.90;;;;;;10397609;28;20270;-77
2022/10/17 20:20:27;;;;;;;25.58;15.13;;;13.50;99.90;;;;;;10409310;28;20029;-77
2022/10/17 20:25:27;;;;;;;25.25;15.40;;;13.40;99.90;;;;;;10406664;28;20036;-76
2022/10/17 20:30:28;;;;;;;33.90;18.23;;;13.30;99.90;;;;;;10404132;28;20040;-77
2022/10/17 20:35:29;;;;;;;33.47;18.45;;;13.20;99.90;;;;;;10409189;28;20124;-77
2022/10/17 20:40:29;;;;;;;33.50;18.52;;;13.00;99.90;;;;;;10403599;28;20041;-78
2022/10/17 20:45:34;;;;;;;34.28;19.45;;;12.90;99.90;;;;;;10401682;28;20037;-77
2022/10/17 20:50:36;;;;;;;33.92;20.40;;;12.80;99.90;;;;;;10402356;28;20041;-77
2022/10/17 20:55:37;;;;;;;32.60;19.83;;;12.80;99.90;;;;;;10398796;28;20041;-76
2022/10/17 21:00:38;;;;;;;35.63;21.25;;;12.70;99.90;;;;;;10407767;28;20420;-80
2022/10/17 21:05:40;;;;;;;39.40;21.30;;;12.70;99.90;;;;;;10407107;28;20052;-80
2022/10/17 21:10:40;;;;;;;36.67;21.42;;;12.60;99.90;;;;;;10393272;28;20080;-76
2022/10/17 21:15:41;;;;;;;36.88;21.52;;;12.60;99.90;;;;;;10400185;28;20033;-76
2022/10/17 21:20:42;;;;;;;34.40;19.15;;;12.50;99.90;;;;;;10407009;28;20029;-77
2022/10/17 21:25:42;;;;;;;31.15;17.95;;;12.40;99.90;;;;;;10398849;28;20455;-78
2022/10/17 21:30:43;;;;;;;36.88;21.45;;;12.40;99.90;;;;;;10406307;28;20045;-79
2022/10/17 21:35:44;;;;;;;39.25;21.10;;;12.30;99.90;;;;;;10403267;28;20029;-78
2022/10/17 21:40:46;;;;;;;53.42;29.23;;;12.20;99.90;;;;;;10403608;28;20033;-77
2022/10/17 21:45:46;;;;;;;46.92;27.02;;;12.20;99.90;;;;;;10402795;28;20032;-77
2022/10/17 21:50:47;;;;;;;49.17;24.10;;;12.20;99.90;;;;;;10406242;28;20048;-78
2022/10/17 21:55:47;;;;;;;39.03;24.30;;;12.10;99.90;;;;;;10403503;28;20120;-77
2022/10/17 22:00:48;;;;;;;39.05;22.50;;;12.00;99.90;;;;;;10394576;28;20036;-77
2022/10/17 22:05:48;;;;;;;42.30;23.83;;;11.90;99.90;;;;;;10406368;28;20440;-78
2022/10/17 22:10:49;;;;;;;39.95;23.20;;;11.90;99.90;;;;;;10399078;28;20040;-77
2022/10/17 22:15:50;;;;;;;33.08;19.17;;;11.80;99.90;;;;;;10390436;28;20521;-80
2022/10/17 22:20:50;;;;;;;33.85;20.15;;;11.70;99.90;;;;;;10406265;28;20025;-77
2022/10/17 22:25:55;;;;;;;39.28;19.80;;;11.70;99.90;;;;;;10403911;28;20044;-79
2022/10/17 22:30:56;;;;;;;31.23;17.30;;;11.60;99.90;;;;;;10405136;28;20539;-77
2022/10/17 22:35:57;;;;;;;36.90;20.17;;;11.60;99.90;;;;;;10398008;28;20037;-77
2022/10/17 22:40:58;;;;;;;29.98;16.92;;;11.60;99.90;;;;;;10394951;28;20033;-77
2022/10/17 22:46:01;;;;;;;34.47;19.23;;;11.60;99.90;;;;;;10399314;28;20440;-79
2022/10/17 22:51:02;;;;;;;31.52;18.48;;;11.60;99.90;;;;;;10399046;28;20068;-76
2022/10/17 22:56:11;;;;;;;37.33;19.23;;;11.60;99.90;;;;;;10403640;28;20117;-76
2022/10/17 23:01:15;;;;;;;34.17;18.80;;;11.50;99.90;;;;;;10397611;28;20030;-77
2022/10/17 23:06:15;;;;;;;33.10;19.38;;;11.50;99.90;;;;;;10403758;28;20045;-77
2022/10/17 23:11:17;;;;;;;32.92;19.95;;;11.40;99.90;;;;;;10393029;28;20039;-77
2022/10/17 23:16:17;;;;;;;37.70;20.80;;;11.40;99.90;;;;;;10400740;28;20409;-77
2022/10/17 23:21:18;;;;;;;41.20;23.75;;;11.40;99.90;;;;;;10403035;28;20037;-77
2022/10/17 23:26:18;;;;;;;42.40;23.85;;;11.30;99.90;;;;;;10396367;28;20037;-79
2022/10/17 23:31:20;;;;;;;41.67;23.05;;;11.30;99.90;;;;;;10407502;28;20038;-79
2022/10/17 23:36:21;;;;;;;46.30;25.08;;;11.20;99.90;;;;;;10411186;28;20091;-78
2022/10/17 23:41:21;;;;;;;48.03;24.85;;;11.20;99.90;;;;;;10402700;28;20088;-77
2022/10/17 23:46:22;;;;;;;48.47;26.70;;;11.10;99.90;;;;;;10394480;28;20030;-79
2022/10/17 23:51:23;;;;;;;37.58;21.35;;;11.00;99.90;;;;;;10410720;28;20061;-82
2022/10/17 23:56:24;;;;;;;39.28;20.88;;;10.90;99.90;;;;;;10400373;28;20068;-77
